createdAt,value
2024-04-18T00:01:16.534Z,73.85
2024-04-18T00:03:45.235Z,74.09
2024-04-18T00:06:12.857Z,74.35
2024-04-18T00:08:40.275Z,74.42
2024-04-18T00:11:26.233Z,74.45
2024-04-18T00:13:54.063Z,74.65
2024-04-18T00:16:36.238Z,74.95
2024-04-18T00:19:16.513Z,75.05
2024-04-18T00:21:59.546Z,75.06
2024-04-18T00:24:30.332Z,75.24
2024-04-18T00:26:57.965Z,75.36
2024-04-18T00:29:36.607Z,75.35
2024-04-18T00:32:11.684Z,75.10
2024-04-18T00:34:39.129Z,75.20
2024-04-18T00:37:06.490Z,75.21
2024-04-18T00:39:52.721Z,75.25
2024-04-18T00:42:39.639Z,75.49
2024-04-18T00:45:08.066Z,75.34
2024-04-18T00:47:46.518Z,75.34
2024-04-18T00:50:13.955Z,75.40
2024-04-18T00:52:41.621Z,75.37
2024-04-18T00:55:09.100Z,75.35
2024-04-18T00:57:36.610Z,75.20
2024-04-18T01:00:07.253Z,75.05
2024-04-18T01:02:52.800Z,75.03
2024-04-18T01:05:33.255Z,74.85
2024-04-18T01:08:00.971Z,74.92
2024-04-18T01:10:48.226Z,75.14
2024-04-18T01:13:15.569Z,75.06
2024-04-18T01:16:02.078Z,75.04
2024-04-18T01:18:29.499Z,75.11
2024-04-18T01:21:15.216Z,75.20
2024-04-18T01:23:42.722Z,75.13
2024-04-18T01:26:13.439Z,74.99
2024-04-18T01:28:40.784Z,75.36
2024-04-18T01:31:08.216Z,75.51
2024-04-18T01:33:35.775Z,75.49
2024-04-18T01:36:03.302Z,75.46
2024-04-18T01:38:51.136Z,75.24
2024-04-18T01:41:31.181Z,75.28
2024-04-18T01:44:01.255Z,75.49
2024-04-18T01:46:47.631Z,75.54
2024-04-18T01:49:30.356Z,75.73
2024-04-18T01:51:57.800Z,75.88
2024-04-18T01:54:43.194Z,75.77
2024-04-18T01:57:10.741Z,75.63
2024-04-18T01:59:56.735Z,75.58
2024-04-18T02:02:27.378Z,75.65
2024-04-18T02:05:11.004Z,75.59
2024-04-18T02:07:44.754Z,75.35
2024-04-18T02:10:12.173Z,75.22
2024-04-18T02:12:58.395Z,75.49
2024-04-18T02:15:44.785Z,75.61
2024-04-18T02:18:15.462Z,75.38
2024-04-18T02:20:43.011Z,75.40
2024-04-18T02:23:25.707Z,75.53
2024-04-18T02:25:53.307Z,75.67
2024-04-18T02:28:20.668Z,75.65
2024-04-18T02:30:48.172Z,75.55
2024-04-18T02:33:16.504Z,75.67
2024-04-18T02:35:47.845Z,75.80
2024-04-18T02:38:34.338Z,75.89
2024-04-18T02:41:06.211Z,76.10
2024-04-18T02:43:50.950Z,76.15
2024-04-18T02:46:18.595Z,76.05
2024-04-18T02:49:04.570Z,76.17
2024-04-18T02:51:32.159Z,76.29
2024-04-18T02:54:14.867Z,76.52
2024-04-18T02:56:42.393Z,76.41
2024-04-18T02:59:12.824Z,76.33
2024-04-18T03:01:50.050Z,76.07
2024-04-18T03:04:17.865Z,76.28
2024-04-18T03:06:48.595Z,76.58
2024-04-18T03:09:17.060Z,76.89
2024-04-18T03:11:56.784Z,76.86
2024-04-18T03:14:43.050Z,76.72
2024-04-18T03:17:10.442Z,76.55
2024-04-18T03:19:56.643Z,76.55
2024-04-18T03:22:27.716Z,76.63
2024-04-18T03:25:01.263Z,76.95
2024-04-18T03:27:31.980Z,76.85
2024-04-18T03:29:59.473Z,76.53
2024-04-18T03:32:39.488Z,76.59
2024-04-18T03:35:08.603Z,76.48
2024-04-18T03:37:38.776Z,76.64
2024-04-18T03:40:25.516Z,76.85
2024-04-18T03:43:02.200Z,77.04
2024-04-18T03:45:29.639Z,77.08
2024-04-18T03:48:17.141Z,77.12
2024-04-18T03:50:44.790Z,77.35
2024-04-18T03:53:21.490Z,77.70
2024-04-18T03:56:09.412Z,77.94
2024-04-18T03:58:36.734Z,78.05
2024-04-18T04:01:04.405Z,78.08
2024-04-18T04:03:32.025Z,78.20
2024-04-18T04:05:59.376Z,78.58
2024-04-18T04:08:26.720Z,78.72
2024-04-18T04:11:12.457Z,78.75
2024-04-18T04:13:40.362Z,78.71
2024-04-18T04:16:20.501Z,78.75
2024-04-18T04:18:56.048Z,78.85
2024-04-18T04:21:42.727Z,78.73
2024-04-18T04:24:10.071Z,78.71
2024-04-18T04:26:50.876Z,78.74
2024-04-18T04:29:18.343Z,78.64
2024-04-18T04:31:45.720Z,78.70
2024-04-18T04:34:13.580Z,78.91
2024-04-18T04:36:40.989Z,78.86
2024-04-18T04:39:08.474Z,79.02
2024-04-18T04:41:40.518Z,79.02
2024-04-18T04:44:08.019Z,78.84
2024-04-18T04:46:51.690Z,78.90
2024-04-18T04:49:22.695Z,79.20
2024-04-18T04:52:07.280Z,79.30
2024-04-18T04:54:44.960Z,79.17
2024-04-18T04:57:12.423Z,78.96
2024-04-18T04:59:39.939Z,79.10
2024-04-18T05:02:07.575Z,79.35
2024-04-18T05:04:50.927Z,79.91
2024-04-18T05:07:38.520Z,79.87
2024-04-18T05:10:24.755Z,79.89
2024-04-18T05:12:52.610Z,79.78
2024-04-18T05:15:35.676Z,79.93
2024-04-18T05:18:04.207Z,80.04
2024-04-18T05:20:31.707Z,79.97
2024-04-18T05:22:59.402Z,79.81
2024-04-18T05:25:26.937Z,79.39
2024-04-18T05:28:21.371Z,79.30
2024-04-18T05:31:05.908Z,79.43
2024-04-18T05:33:33.835Z,79.49
2024-04-18T05:36:01.707Z,79.31
2024-04-18T05:40:36.971Z,79.19
2024-04-18T05:43:05.682Z,79.14
2024-04-18T05:45:48.795Z,79.11
2024-04-18T05:48:16.237Z,79.40
2024-04-18T05:50:43.970Z,79.23
2024-04-18T05:53:23.729Z,79.19
2024-04-18T05:55:53.895Z,79.23
2024-04-18T05:58:21.555Z,79.41
2024-04-18T06:00:55.060Z,79.59
2024-04-18T06:03:23.168Z,79.62
2024-04-18T06:05:50.582Z,79.46
2024-04-18T06:08:18.151Z,79.60
2024-04-18T06:10:46.210Z,79.63
2024-04-18T06:13:20.794Z,79.56
2024-04-18T06:15:48.643Z,79.56
2024-04-18T06:18:16.598Z,79.30
2024-04-18T06:20:47.926Z,79.62
2024-04-18T06:23:15.553Z,79.82
2024-04-18T06:25:43.222Z,79.83
2024-04-18T06:28:12.224Z,79.75
2024-04-18T06:30:40.366Z,79.57
2024-04-18T06:33:11.780Z,79.51
2024-04-18T06:35:39.418Z,79.54
2024-04-18T06:38:07.917Z,79.53
2024-04-18T06:40:35.510Z,79.65
2024-04-18T06:43:03.004Z,80.02
2024-04-18T06:45:30.519Z,79.93
2024-04-18T06:47:58.120Z,79.94
2024-04-18T06:50:27.644Z,80.36
2024-04-18T06:52:55.293Z,80.54
2024-04-18T06:55:23.967Z,80.30
2024-04-18T06:57:51.646Z,80.51
2024-04-18T07:00:19.617Z,80.81
2024-04-18T07:02:47.528Z,80.75
2024-04-18T07:05:34.075Z,80.67
2024-04-18T07:08:20.182Z,80.20
2024-04-18T07:10:47.736Z,79.75
2024-04-18T07:13:32.754Z,79.84
2024-04-18T07:16:04.546Z,79.70
2024-04-18T07:19:07.476Z,80.15
2024-04-18T07:21:54.819Z,79.92
2024-04-18T07:24:24.689Z,79.94
2024-04-18T07:26:54.115Z,79.61
2024-04-18T07:29:22.910Z,79.77
2024-04-18T07:31:50.520Z,79.95
2024-04-18T07:34:18.113Z,80.33
2024-04-18T07:36:48.824Z,80.45
2024-04-18T07:39:16.693Z,80.57
2024-04-18T07:41:44.279Z,80.59
2024-04-18T07:44:13.291Z,80.47
2024-04-18T07:46:40.969Z,80.13
2024-04-18T07:49:09.640Z,80.02
2024-04-18T07:51:38.348Z,80.22
2024-04-18T07:54:07.120Z,80.03
2024-04-18T07:56:34.888Z,80.03
2024-04-18T07:59:03.607Z,80.00
2024-04-18T08:01:32.636Z,79.83
2024-04-18T08:04:17.660Z,80.18
2024-04-18T08:06:51.604Z,79.78
2024-04-18T08:09:23.902Z,79.60
2024-04-18T08:12:18.185Z,79.59
2024-04-18T08:14:43.751Z,79.94
2024-04-18T08:17:13.922Z,80.01
2024-04-18T08:19:41.600Z,79.86
2024-04-18T08:22:09.037Z,80.38
2024-04-18T08:24:37.103Z,79.91
2024-04-18T08:27:08.081Z,79.81
2024-04-18T08:29:36.131Z,79.88
2024-04-18T08:32:03.852Z,80.04
2024-04-18T08:34:32.866Z,80.14
2024-04-18T08:37:01.714Z,79.66
2024-04-18T08:39:29.268Z,79.92
2024-04-18T08:41:59.845Z,80.46
2024-04-18T08:44:27.437Z,80.26
2024-04-18T08:46:54.871Z,80.67
2024-04-18T08:49:22.447Z,80.29
2024-04-18T08:51:50.332Z,79.94
2024-04-18T08:54:18.330Z,80.07
2024-04-18T08:56:48.001Z,79.90
2024-04-18T08:59:15.560Z,80.37
2024-04-18T09:01:43.041Z,80.35
2024-04-18T09:04:10.607Z,80.70
2024-04-18T09:06:38.103Z,80.67
2024-04-18T09:09:10.104Z,80.18
2024-04-18T09:11:37.724Z,80.62
2024-04-18T09:14:09.424Z,80.81
2024-04-18T09:16:38.939Z,79.80
2024-04-18T09:19:07.622Z,79.56
2024-04-18T09:21:36.482Z,79.78
2024-04-18T09:24:06.583Z,80.01
2024-04-18T09:26:34.279Z,79.53
2024-04-18T09:29:01.924Z,79.68
2024-04-18T09:31:37.672Z,79.77
2024-04-18T09:34:11.251Z,79.58
2024-04-18T09:36:40.253Z,79.48
2024-04-18T09:39:08.023Z,78.74
2024-04-18T09:41:38.049Z,78.64
2024-04-18T09:44:05.775Z,78.78
2024-04-18T09:46:33.424Z,78.89
2024-04-18T09:49:01.282Z,79.19
2024-04-18T09:51:29.237Z,78.87
2024-04-18T09:53:57.239Z,78.63
2024-04-18T09:56:27.792Z,78.06
2024-04-18T09:58:55.643Z,78.11
2024-04-18T10:01:23.082Z,77.99
2024-04-18T10:03:51.031Z,77.90
2024-04-18T10:06:19.464Z,77.82
2024-04-18T10:08:51.766Z,77.76
2024-04-18T10:11:20.578Z,77.39
2024-04-18T10:13:48.231Z,77.59
2024-04-18T10:16:16.577Z,77.86
2024-04-18T10:18:47.761Z,77.77
2024-04-18T10:21:32.193Z,77.61
2024-04-18T10:24:06.754Z,77.41
2024-04-18T10:26:36.032Z,77.82
2024-04-18T10:29:03.588Z,78.12
2024-04-18T10:31:31.218Z,78.14
2024-04-18T10:33:58.799Z,78.01
2024-04-18T10:36:27.315Z,78.16
2024-04-18T10:38:55.031Z,77.98
2024-04-18T10:41:23.305Z,78.08
2024-04-18T10:43:51.192Z,78.39
2024-04-18T10:46:19.488Z,78.52
2024-04-18T10:48:52.248Z,78.83
2024-04-18T10:51:19.998Z,78.93
2024-04-18T10:53:47.607Z,79.11
2024-04-18T10:56:15.900Z,79.41
2024-04-18T10:58:43.369Z,79.19
2024-04-18T11:01:11.064Z,79.14
2024-04-18T11:03:38.740Z,79.62
2024-04-18T11:06:06.374Z,79.70
2024-04-18T11:08:35.396Z,80.09
2024-04-18T11:11:04.593Z,80.10
2024-04-18T11:13:32.309Z,79.95
2024-04-18T11:15:59.844Z,80.20
2024-04-18T11:18:27.894Z,80.33
2024-04-18T11:20:55.420Z,80.67
2024-04-18T11:23:32.628Z,80.87
2024-04-18T11:26:07.142Z,80.65
2024-04-18T11:28:35.227Z,80.68
2024-04-18T11:31:02.733Z,80.81
2024-04-18T11:33:30.327Z,81.04
2024-04-18T11:35:57.982Z,81.18
2024-04-18T11:38:25.653Z,80.75
2024-04-18T11:40:53.117Z,80.60
2024-04-18T11:43:20.588Z,80.94
2024-04-18T11:45:48.125Z,80.73
2024-04-18T11:48:15.755Z,80.21
2024-04-18T11:50:43.600Z,80.15
2024-04-18T11:53:10.972Z,80.58
2024-04-18T11:55:38.548Z,80.71
2024-04-18T11:58:24.762Z,80.31
2024-04-18T12:00:52.209Z,79.88
2024-04-18T12:03:40.511Z,79.68
2024-04-18T12:06:27.866Z,80.01
2024-04-18T12:08:56.662Z,80.40
2024-04-18T12:11:31.416Z,80.89
2024-04-18T12:14:12.510Z,80.71
2024-04-18T12:16:56.059Z,80.48
2024-04-18T12:19:42.677Z,80.59
2024-04-18T12:22:32.012Z,80.85
2024-04-18T12:25:18.286Z,81.26
2024-04-18T12:27:46.783Z,81.15
2024-04-18T12:30:33.746Z,81.46
2024-04-18T12:33:20.838Z,81.63
2024-04-18T12:35:49.213Z,81.77
2024-04-18T12:38:16.864Z,81.93
2024-04-18T12:40:45.008Z,81.98
2024-04-18T12:43:16.073Z,82.12
2024-04-18T12:46:06.328Z,81.48
2024-04-18T12:48:52.310Z,81.46
2024-04-18T12:51:20.031Z,81.42
2024-04-18T12:53:47.776Z,81.59
2024-04-18T12:56:15.448Z,81.48
2024-04-18T12:58:43.408Z,81.80
2024-04-18T13:01:11.593Z,81.94
2024-04-18T13:03:42.783Z,81.82
2024-04-18T13:06:29.382Z,81.19
2024-04-18T13:08:57.997Z,81.16
2024-04-18T13:11:45.851Z,81.38
2024-04-18T13:14:13.352Z,81.12
2024-04-18T13:16:40.745Z,81.04
2024-04-18T13:19:11.724Z,80.65
2024-04-18T13:21:39.783Z,81.55
2024-04-18T13:24:11.774Z,82.10
2024-04-18T13:26:52.447Z,82.18
2024-04-18T13:29:20.529Z,81.34
2024-04-18T13:31:48.034Z,81.19
2024-04-18T13:34:21.805Z,81.09
2024-04-18T13:36:49.564Z,80.62
2024-04-18T13:39:17.083Z,79.15
2024-04-18T13:42:04.742Z,78.89
2024-04-18T13:44:53.051Z,79.05
2024-04-18T13:47:24.487Z,79.25
2024-04-18T13:49:52.464Z,79.36
2024-04-18T13:52:20.138Z,79.42
2024-04-18T13:55:05.716Z,79.92
2024-04-18T13:57:33.577Z,80.21
2024-04-18T14:00:20.174Z,80.24
2024-04-18T14:03:06.598Z,80.69
2024-04-18T14:05:34.342Z,80.62
2024-04-18T14:08:03.759Z,80.45
2024-04-18T14:10:31.577Z,80.98
2024-04-18T14:13:37.472Z,81.44
2024-04-18T14:16:43.649Z,81.17
2024-04-18T14:19:31.066Z,80.70
2024-04-18T14:22:06.533Z,80.68
2024-04-18T14:24:34.702Z,81.14
2024-04-18T14:27:02.925Z,81.32
2024-04-18T14:29:30.595Z,81.48
2024-04-18T14:32:01.019Z,81.42
2024-04-18T14:34:48.358Z,81.10
2024-04-18T14:37:16.899Z,81.35
2024-04-18T14:39:44.649Z,81.42
2024-04-18T14:42:12.444Z,81.18
2024-04-18T14:44:40.278Z,80.99
2024-04-18T14:47:15.503Z,81.19
2024-04-18T14:50:02.290Z,81.50
2024-04-18T14:52:35.362Z,81.48
2024-04-18T14:55:23.392Z,81.34
2024-04-18T14:57:51.436Z,80.94
2024-04-18T15:00:19.377Z,80.88
2024-04-18T15:02:47.304Z,81.01
2024-04-18T15:05:58.141Z,81.30
2024-04-18T15:08:39.051Z,81.33
2024-04-18T15:11:23.161Z,81.07
2024-04-18T15:14:04.454Z,80.95
2024-04-18T15:16:32.053Z,81.02
2024-04-18T15:18:59.597Z,80.55
2024-04-18T15:21:29.551Z,80.28
2024-04-18T15:24:12.678Z,80.40
2024-04-18T15:26:59.871Z,80.69
2024-04-18T15:29:27.417Z,80.86
2024-04-18T15:32:13.480Z,80.30
2024-04-18T15:34:47.747Z,80.02
2024-04-18T15:37:34.430Z,79.96
2024-04-18T15:40:01.889Z,80.26
2024-04-18T15:42:29.481Z,80.36
2024-04-18T15:44:56.935Z,80.25
2024-04-18T15:47:31.392Z,80.31
2024-04-18T15:50:18.112Z,80.49
2024-04-18T15:52:46.068Z,80.48
2024-04-18T15:55:30.311Z,80.68
2024-04-18T15:58:18.395Z,80.95
2024-04-18T16:00:45.969Z,80.88
2024-04-18T16:03:32.793Z,80.91
2024-04-18T16:06:22.016Z,81.10
2024-04-18T16:09:08.105Z,81.29
2024-04-18T16:11:41.780Z,81.28
2024-04-18T16:14:28.309Z,81.38
2024-04-18T16:16:57.142Z,81.52
2024-04-18T16:19:39.918Z,81.91
2024-04-18T16:22:07.450Z,82.01
2024-04-18T16:24:50.100Z,82.46
2024-04-18T16:27:17.720Z,82.43
2024-04-18T16:30:00.582Z,82.11
2024-04-18T16:32:45.292Z,82.37
2024-04-18T16:35:12.821Z,82.55
2024-04-18T16:37:41.875Z,82.55
2024-04-18T16:40:15.947Z,82.46
2024-04-18T16:43:00.195Z,82.32
2024-04-18T16:45:31.392Z,82.27
2024-04-18T16:48:00.928Z,81.97
2024-04-18T16:50:29.274Z,82.25
2024-04-18T16:52:56.749Z,82.21
2024-04-18T16:55:42.980Z,82.19
2024-04-18T16:58:17.317Z,82.56
2024-04-18T17:01:00.453Z,82.74
2024-04-18T17:03:28.761Z,82.93
2024-04-18T17:06:03.099Z,82.96
2024-04-18T17:08:30.961Z,83.06
2024-04-18T17:10:58.585Z,83.31
2024-04-18T17:13:44.603Z,83.49
2024-04-18T17:16:12.254Z,83.55
2024-04-18T17:18:48.699Z,83.39
2024-04-18T17:21:16.508Z,83.53
2024-04-18T17:23:44.068Z,83.76
2024-04-18T17:26:11.578Z,84.17
2024-04-18T17:28:39.490Z,84.12
2024-04-18T17:31:06.989Z,83.77
2024-04-18T17:33:34.738Z,83.74
2024-04-18T17:36:02.463Z,83.81
2024-04-18T17:38:48.901Z,83.75
2024-04-18T17:41:29.453Z,83.57
2024-04-18T17:44:16.208Z,83.44
2024-04-18T17:46:56.838Z,83.21
2024-04-18T17:49:24.659Z,83.03
2024-04-18T17:51:52.483Z,82.77
2024-04-18T17:54:22.597Z,82.77
2024-04-18T17:58:05.469Z,83.43
2024-04-18T18:00:32.921Z,83.45
2024-04-18T18:03:00.600Z,83.52
2024-04-18T18:05:40.203Z,83.65
2024-04-18T18:08:26.450Z,83.84
2024-04-18T18:10:54.124Z,83.96
2024-04-18T18:13:21.772Z,83.82
2024-04-18T18:15:49.283Z,83.86
2024-04-18T18:18:17.639Z,84.11
2024-04-18T18:20:45.126Z,84.14
2024-04-18T18:23:15.422Z,84.18
2024-04-18T18:25:44.071Z,83.86
2024-04-18T18:28:11.546Z,83.93
2024-04-18T18:31:01.115Z,84.27
2024-04-18T18:33:28.742Z,84.51
2024-04-18T18:35:56.563Z,84.52
2024-04-18T18:38:24.020Z,84.25
2024-04-18T18:40:51.478Z,84.11
2024-04-18T18:43:24.908Z,84.07
2024-04-18T18:45:53.613Z,84.21
2024-04-18T18:48:21.169Z,84.11
2024-04-18T18:51:05.774Z,84.04
2024-04-18T18:53:33.751Z,84.17
2024-04-18T18:56:01.200Z,84.17
2024-04-18T18:58:50.445Z,83.94
2024-04-18T19:01:17.918Z,83.68
2024-04-18T19:03:47.974Z,83.77
2024-04-18T19:06:28.070Z,83.62
2024-04-18T19:08:59.496Z,83.68
2024-04-18T19:11:39.274Z,83.88
2024-04-18T19:14:06.806Z,84.18
2024-04-18T19:16:34.484Z,84.08
2024-04-18T19:19:02.127Z,83.86
2024-04-18T19:21:29.537Z,83.70
2024-04-18T19:23:58.308Z,83.64
2024-04-18T19:26:27.601Z,84.18
2024-04-18T19:28:55.162Z,84.75
2024-04-18T19:31:22.825Z,84.85
2024-04-18T19:33:50.418Z,84.61
2024-04-18T19:36:18.155Z,84.97
2024-04-18T19:38:46.199Z,85.27
2024-04-18T19:41:26.431Z,85.64
2024-04-18T19:43:54.994Z,85.57
2024-04-18T19:46:23.268Z,85.94
2024-04-18T19:49:10.386Z,86.36
2024-04-18T19:51:57.303Z,86.18
2024-04-18T19:54:24.787Z,86.03
2024-04-18T19:56:52.535Z,86.22
2024-04-18T19:59:19.919Z,86.40
2024-04-18T20:01:48.051Z,86.28
2024-04-18T20:04:15.602Z,86.32
2024-04-18T20:06:43.254Z,86.36
2024-04-18T20:09:10.884Z,86.51
2024-04-18T20:11:38.980Z,86.40
2024-04-18T20:14:06.476Z,86.34
2024-04-18T20:16:35.502Z,85.64
2024-04-18T20:19:13.376Z,85.23
2024-04-18T20:21:42.550Z,85.51
2024-04-18T20:24:10.829Z,85.81
2024-04-18T20:26:58.349Z,85.98
2024-04-18T20:29:44.586Z,85.81
2024-04-18T20:32:25.426Z,85.86
2024-04-18T20:34:53.722Z,86.35
2024-04-18T20:37:21.397Z,86.35
2024-04-18T20:39:49.057Z,86.21
2024-04-18T20:42:16.752Z,85.93
2024-04-18T20:45:03.263Z,85.90
2024-04-18T20:47:30.929Z,85.91
2024-04-18T20:49:58.572Z,85.80
2024-04-18T20:52:25.957Z,85.61
2024-04-18T20:54:54.954Z,85.81
2024-04-18T20:57:25.180Z,85.97
2024-04-18T20:59:54.500Z,86.13
2024-04-18T21:02:23.145Z,86.13
2024-04-18T21:04:52.041Z,86.08
2024-04-18T21:07:19.615Z,86.40
2024-04-18T21:09:47.114Z,86.81
2024-04-18T21:12:14.751Z,86.97
2024-04-18T21:14:42.412Z,87.14
2024-04-18T21:17:09.829Z,87.51
2024-04-18T21:19:37.707Z,88.05
2024-04-18T21:22:08.045Z,88.45
2024-04-18T21:24:35.519Z,88.69
2024-04-18T21:27:03.011Z,88.63
2024-04-18T21:29:30.780Z,88.23
2024-04-18T21:31:58.298Z,88.26
2024-04-18T21:34:26.167Z,88.50
2024-04-18T21:36:53.732Z,88.66
2024-04-18T21:39:21.229Z,88.75
2024-04-18T21:41:49.676Z,88.55
2024-04-18T21:44:19.002Z,88.79
2024-04-18T21:46:46.378Z,88.56
2024-04-18T21:49:14.018Z,88.23
2024-04-18T21:51:42.127Z,88.00
2024-04-18T21:54:09.881Z,87.90
2024-04-18T21:56:37.501Z,87.79
2024-04-18T21:59:05.059Z,88.21
2024-04-18T22:01:42.799Z,88.27
2024-04-18T22:04:11.716Z,88.02
2024-04-18T22:06:40.081Z,88.24
2024-04-18T22:09:07.847Z,88.23
2024-04-18T22:11:35.439Z,88.15
2024-04-18T22:14:03.131Z,87.92
2024-04-18T22:16:30.695Z,87.41
2024-04-18T22:18:58.427Z,87.28
2024-04-18T22:21:36.450Z,87.35
2024-04-18T22:24:08.956Z,87.54
2024-04-18T22:26:36.825Z,87.42
2024-04-18T22:29:05.037Z,87.21
2024-04-18T22:31:32.557Z,86.97
2024-04-18T22:34:00.226Z,86.88
2024-04-18T22:36:28.188Z,87.01
2024-04-18T22:38:56.918Z,86.98
2024-04-18T22:41:26.941Z,86.98
2024-04-18T22:43:54.346Z,86.90
2024-04-18T22:46:21.906Z,86.57
2024-04-18T22:48:49.559Z,86.78
2024-04-18T22:51:17.244Z,86.88
2024-04-18T22:53:44.692Z,86.98
2024-04-18T22:56:12.172Z,86.88
2024-04-18T22:58:39.642Z,87.25
2024-04-18T23:01:09.240Z,87.34
2024-04-18T23:03:36.988Z,87.42
2024-04-18T23:06:14.352Z,87.32
2024-04-18T23:08:43.120Z,87.54
2024-04-18T23:11:11.049Z,87.87
2024-04-18T23:13:39.224Z,88.04
2024-04-18T23:16:07.131Z,87.25
2024-04-18T23:18:35.428Z,86.65
2024-04-18T23:21:03.140Z,86.07
2024-04-18T23:23:33.591Z,86.29
2024-04-18T23:26:01.140Z,86.71
2024-04-18T23:28:29.292Z,86.82
2024-04-18T23:30:56.859Z,86.85
2024-04-18T23:33:24.592Z,86.91
2024-04-18T23:35:52.392Z,87.04
2024-04-18T23:38:22.101Z,86.90
2024-04-18T23:40:50.280Z,86.92
2024-04-18T23:43:19.003Z,86.99
2024-04-18T23:45:46.574Z,86.55
2024-04-18T23:48:14.373Z,86.55
2024-04-18T23:50:43.433Z,86.87
2024-04-18T23:53:11.045Z,87.21
2024-04-18T23:55:39.865Z,87.02
2024-04-18T23:58:07.392Z,87.15
